Time;durP1;ratioP1;P1;durP2;ratioP2;P2;SDS_P1;SDS_P2;PMS_P1;PMS_P2;Temp;Humidity;BMP_temperature;BMP_pressure;BME280_temperature;BME280_humidity;BME280_pressure;Samples;Min_cycle;Max_cycle;Signal;HPM_P1;HPM_P2
2024/01/15 00:00:37;;;;;;;;;26.40;23.80;;;;;3.40;45.51;98476.00;5012499;28;8909;-82
2024/01/15 00:03:28;;;;;;;;;35.20;28.20;;;;;3.47;45.96;98475.97;5062279;28;8936;-82
2024/01/15 00:05:57;;;;;;;;;23.80;21.80;;;;;3.19;46.27;98471.88;5013343;28;8879;-83
2024/01/15 00:08:26;;;;;;;;;17.20;16.80;;;;;2.97;47.79;98465.13;5012792;28;8899;-83
2024/01/15 00:10:56;;;;;;;;;23.20;20.60;;;;;2.98;46.86;98467.72;4989875;28;10970;-83
2024/01/15 00:13:24;;;;;;;;;23.40;21.00;;;;;3.04;46.84;98458.16;4991265;28;9609;-82
2024/01/15 00:15:54;;;;;;;;;23.40;22.80;;;;;3.01;47.50;98459.03;4991581;28;8953;-81
2024/01/15 00:18:23;;;;;;;;;23.60;19.20;;;;;3.27;45.90;98456.22;5006617;28;8932;-81
2024/01/15 00:20:54;;;;;;;;;23.00;18.00;;;;;3.36;47.13;98457.88;5007461;28;9037;-82
2024/01/15 00:23:23;;;;;;;;;24.00;21.20;;;;;3.39;45.52;98458.72;5023138;28;8856;-82
2024/01/15 00:25:53;;;;;;;;;22.80;19.60;;;;;3.42;46.85;98457.84;5016369;28;8934;-81
2024/01/15 00:28:22;;;;;;;;;26.00;23.60;;;;;3.52;46.52;98454.28;5008827;28;8875;-82
2024/01/15 00:30:51;;;;;;;;;23.60;22.60;;;;;3.51;46.52;98459.50;5018844;28;8827;-81
2024/01/15 00:33:20;;;;;;;;;24.00;21.60;;;;;3.63;46.10;98461.09;5052113;28;8872;-84
2024/01/15 00:35:50;;;;;;;;;20.60;19.00;;;;;3.58;46.30;98456.81;5034424;28;8874;-82
2024/01/15 00:38:20;;;;;;;;;21.00;19.20;;;;;3.84;45.04;98457.41;5054739;28;8858;-83
2024/01/15 00:40:50;;;;;;;;;22.60;19.80;;;;;3.85;45.57;98454.81;5013498;28;8959;-81
2024/01/15 00:43:19;;;;;;;;;25.20;19.40;;;;;3.89;46.18;98453.88;5010308;28;8856;-82
2024/01/15 00:45:48;;;;;;;;;18.60;17.60;;;;;3.85;45.72;98444.41;5028976;28;8898;-82
2024/01/15 00:48:17;;;;;;;;;16.00;14.80;;;;;3.75;45.53;98447.97;5028798;28;8832;-82
2024/01/15 00:50:47;;;;;;;;;14.60;14.20;;;;;3.82;45.35;98447.03;5025254;28;8856;-82
2024/01/15 00:53:16;;;;;;;;;15.60;15.60;;;;;3.98;45.53;98438.19;5018869;28;8860;-81
2024/01/15 00:55:47;;;;;;;;;13.60;13.60;;;;;3.92;45.66;98439.97;5031928;28;8864;-82
2024/01/15 00:58:16;;;;;;;;;16.40;14.20;;;;;4.03;46.03;98437.25;5028589;28;8844;-82
2024/01/15 01:00:46;;;;;;;;;15.60;15.00;;;;;3.89;45.99;98417.50;5027494;28;8860;-83
2024/01/15 01:03:16;;;;;;;;;17.20;16.00;;;;;3.67;46.20;98427.25;5008814;28;8886;-82
2024/01/15 01:05:46;;;;;;;;;25.40;23.40;;;;;3.90;45.82;98427.03;5023234;28;8854;-83
2024/01/15 01:08:15;;;;;;;;;15.20;15.20;;;;;4.00;45.81;98430.38;5006821;28;8874;-81
2024/01/15 01:10:45;;;;;;;;;20.40;17.60;;;;;4.11;44.83;98422.41;4998110;28;9640;-83
2024/01/15 01:13:16;;;;;;;;;16.40;15.00;;;;;4.06;45.02;98422.50;5028508;28;8844;-81
2024/01/15 01:15:45;;;;;;;;;17.40;14.00;;;;;4.17;45.23;98423.22;5024344;28;8894;-80
2024/01/15 01:18:14;;;;;;;;;13.80;13.80;;;;;4.13;45.41;98420.66;5013821;28;8872;-82
2024/01/15 01:20:44;;;;;;;;;15.80;15.00;;;;;4.37;44.52;98414.25;5031533;28;8860;-80
2024/01/15 01:23:13;;;;;;;;;16.80;15.00;;;;;4.52;44.19;98416.66;5048956;28;8845;-82
2024/01/15 01:25:42;;;;;;;;;17.40;16.20;;;;;4.46;43.86;98419.34;5037204;28;8856;-80
2024/01/15 01:28:11;;;;;;;;;20.00;19.60;;;;;4.38;44.00;98410.78;5030628;28;8863;-80
2024/01/15 01:30:42;;;;;;;;;24.60;20.80;;;;;4.26;44.70;98411.84;5046064;28;8868;-81
2024/01/15 01:33:11;;;;;;;;;15.40;15.40;;;;;4.24;44.74;98410.97;5048963;28;8902;-81
2024/01/15 01:35:40;;;;;;;;;22.00;19.00;;;;;4.47;45.06;98410.66;5029178;28;8856;-81
2024/01/15 01:38:09;;;;;;;;;14.20;13.40;;;;;4.47;45.19;98397.66;4966737;28;8863;-80
2024/01/15 01:40:39;;;;;;;;;15.20;15.20;;;;;4.46;44.67;98397.69;4989422;28;8889;-79
2024/01/15 01:43:09;;;;;;;;;15.40;12.60;;;;;4.54;44.07;98401.00;4947045;28;8870;-82
2024/01/15 01:45:39;;;;;;;;;15.40;13.80;;;;;4.52;44.39;98397.56;4972001;28;8973;-81
2024/01/15 01:48:10;;;;;;;;;14.40;13.00;;;;;4.67;44.34;98407.75;4972411;28;8940;-80
2024/01/15 01:50:39;;;;;;;;;15.60;12.00;;;;;4.51;45.32;98394.13;4971400;28;8896;-81
2024/01/15 01:53:09;;;;;;;;;10.20;10.00;;;;;4.31;45.27;98386.59;4961692;28;8852;-80
2024/01/15 01:55:40;;;;;;;;;11.60;11.60;;;;;4.23;45.36;98385.00;4983989;28;9052;-82
2024/01/15 01:58:09;;;;;;;;;16.80;15.00;;;;;4.02;45.77;98384.41;5014296;28;8880;-80
2024/01/15 02:00:39;;;;;;;;;15.40;15.00;;;;;4.03;46.58;98382.66;4993914;28;8855;-81
2024/01/15 02:03:10;;;;;;;;;18.00;16.80;;;;;3.88;46.04;98374.16;4991868;28;8839;-82
2024/01/15 02:05:40;;;;;;;;;19.20;16.20;;;;;3.92;45.84;98375.00;4990152;28;9052;-82
2024/01/15 02:08:08;;;;;;;;;17.40;16.80;;;;;3.88;46.15;98368.97;4956320;28;8896;-81
2024/01/15 02:10:38;;;;;;;;;15.00;12.60;;;;;3.75;46.59;98365.69;4980885;28;8865;-81
2024/01/15 02:13:07;;;;;;;;;15.40;14.00;;;;;3.75;47.19;98363.09;4993659;28;8984;-80
2024/01/15 02:15:36;;;;;;;;;14.00;11.80;;;;;3.66;47.49;98352.78;5009965;28;8874;-80
2024/01/15 02:18:07;;;;;;;;;16.40;15.40;;;;;3.54;47.52;98342.53;4964089;28;8877;-82
2024/01/15 02:20:38;;;;;;;;;15.60;14.00;;;;;3.55;47.13;98339.94;4989767;28;8898;-80
2024/01/15 02:23:11;;;;;;;;;15.00;13.20;;;;;3.61;46.49;98338.13;4995917;28;9725;-81
2024/01/15 02:25:42;;;;;;;;;10.80;10.80;;;;;3.65;46.90;98332.03;4993476;28;8866;-80
2024/01/15 02:28:12;;;;;;;;;13.80;12.20;;;;;3.66;47.11;98337.19;4972491;28;8928;-80
2024/01/15 02:30:42;;;;;;;;;9.40;8.80;;;;;3.54;47.27;98327.81;5013000;28;8860;-80
2024/01/15 02:33:13;;;;;;;;;10.60;9.00;;;;;3.60;47.92;98319.09;5011257;28;8888;-81
2024/01/15 02:35:42;;;;;;;;;17.40;16.80;;;;;3.63;47.30;98316.44;5007343;28;8872;-83
2024/01/15 02:38:16;;;;;;;;;3.80;2.80;;;;;3.75;47.81;98303.31;5006098;28;8860;-81
2024/01/15 02:40:45;;;;;;;;;11.60;10.00;;;;;3.54;47.88;98306.16;5005857;28;8857;-80
2024/01/15 02:43:14;;;;;;;;;11.20;10.20;;;;;3.78;46.86;98298.03;4988966;28;8848;-81
2024/01/15 02:45:44;;;;;;;;;11.60;11.00;;;;;3.81;46.84;98298.88;5018246;28;8865;-80
2024/01/15 02:48:13;;;;;;;;;14.80;12.80;;;;;3.67;46.87;98302.53;4994421;28;8873;-82
2024/01/15 02:50:42;;;;;;;;;10.00;10.00;;;;;3.75;46.79;98290.31;5009910;28;8909;-80
2024/01/15 02:53:11;;;;;;;;;12.20;11.40;;;;;3.55;47.59;98284.50;4993745;28;8850;-77
2024/01/15 02:55:42;;;;;;;;;12.00;10.80;;;;;3.62;46.78;98274.88;4997725;28;9635;-79
2024/01/15 02:58:11;;;;;;;;;8.80;7.80;;;;;3.56;47.35;98268.91;5025939;28;8860;-80
2024/01/15 03:00:40;;;;;;;;;9.20;9.20;;;;;3.77;47.15;98275.53;5026911;28;8856;-82
2024/01/15 03:03:09;;;;;;;;;11.00;9.40;;;;;3.82;46.99;98274.63;4990265;28;8846;-80
2024/01/15 03:05:38;;;;;;;;;8.80;8.80;;;;;3.91;46.62;98275.34;4992486;28;8874;-81
2024/01/15 03:08:08;;;;;;;;;11.60;10.40;;;;;3.98;46.26;98268.31;5012837;28;8859;-80
2024/01/15 03:10:37;;;;;;;;;10.00;9.80;;;;;3.85;46.46;98265.03;5012905;28;8875;-80
2024/01/15 03:13:07;;;;;;;;;10.00;9.60;;;;;3.89;46.10;98264.09;4995887;28;8879;-79
2024/01/15 03:15:36;;;;;;;;;12.00;12.00;;;;;3.85;46.64;98257.25;5029750;28;8848;-81
2024/01/15 03:18:06;;;;;;;;;10.80;10.80;;;;;3.77;46.61;98252.16;5066588;28;8896;-79
2024/01/15 03:20:36;;;;;;;;;10.60;9.20;;;;;3.64;47.33;98240.22;5064914;28;8888;-80
2024/01/15 03:23:05;;;;;;;;;11.20;9.80;;;;;3.62;47.74;98236.78;5013567;28;8863;-79
2024/01/15 03:25:34;;;;;;;;;14.20;11.00;;;;;3.55;47.14;98238.59;5020906;28;8832;-80
2024/01/15 03:28:03;;;;;;;;;10.20;10.00;;;;;3.56;47.48;98236.84;5022497;28;8879;-80
2024/01/15 03:30:34;;;;;;;;;10.80;10.80;;;;;3.67;47.30;98227.16;5026993;28;8950;-80
2024/01/15 03:33:03;;;;;;;;;8.40;6.60;;;;;3.62;47.02;98226.38;5036462;28;8863;-80
2024/01/15 03:35:32;;;;;;;;;11.00;10.00;;;;;3.73;46.61;98218.41;5005964;28;8869;-80
2024/01/15 03:38:01;;;;;;;;;10.60;10.00;;;;;3.84;47.25;98211.31;5022100;28;8866;-79
2024/01/15 03:40:30;;;;;;;;;8.00;6.00;;;;;3.79;46.47;98207.94;5009335;28;8866;-80
2024/01/15 03:42:59;;;;;;;;;9.60;9.60;;;;;3.76;46.69;98208.00;5009297;28;8961;-80
2024/01/15 03:45:28;;;;;;;;;15.40;11.20;;;;;3.72;46.67;98198.53;4992277;28;8873;-81
2024/01/15 03:47:58;;;;;;;;;7.60;7.40;;;;;3.76;46.83;98195.84;5051759;28;8867;-80
2024/01/15 03:50:27;;;;;;;;;5.60;5.60;;;;;3.73;47.05;98187.22;5045693;28;8862;-80
2024/01/15 03:52:56;;;;;;;;;10.00;10.00;;;;;3.68;47.40;98189.06;5029683;28;8835;-83
2024/01/15 03:55:26;;;;;;;;;11.40;9.60;;;;;3.77;47.28;98181.09;5040729;28;8860;-80
2024/01/15 03:57:54;;;;;;;;;8.60;8.00;;;;;3.83;46.93;98174.94;5011227;28;8849;-81
2024/01/15 04:00:24;;;;;;;;;13.80;12.40;;;;;3.81;46.75;98171.50;5011051;28;8897;-82
2024/01/15 04:02:53;;;;;;;;;9.80;9.00;;;;;3.96;46.85;98166.94;5011154;28;8853;-82
2024/01/15 04:05:24;;;;;;;;;7.00;7.00;;;;;3.97;46.82;98160.00;5027999;28;8999;-81
2024/01/15 04:07:53;;;;;;;;;9.20;8.40;;;;;4.01;46.77;98158.22;5011348;28;8868;-81
2024/01/15 04:10:22;;;;;;;;;6.00;6.00;;;;;4.08;46.66;98157.22;4998705;28;8906;-80
2024/01/15 04:12:51;;;;;;;;;12.00;9.80;;;;;4.01;46.59;98153.84;5010275;28;8871;-80
2024/01/15 04:15:21;;;;;;;;;13.40;11.80;;;;;4.14;45.77;98144.97;4944090;28;8879;-80
2024/01/15 04:17:49;;;;;;;;;10.20;10.20;;;;;4.03;46.86;98148.63;4990924;28;8986;-78
2024/01/15 04:20:19;;;;;;;;;5.20;5.20;;;;;3.98;47.01;98149.56;5014939;28;8845;-80
2024/01/15 04:22:53;;;;;;;;;10.80;8.00;;;;;4.04;46.43;98150.38;4997352;28;8880;-80
2024/01/15 04:25:22;;;;;;;;;11.20;11.00;;;;;4.03;46.34;98149.50;5030322;28;8854;-79
2024/01/15 04:27:51;;;;;;;;;7.80;7.80;;;;;4.25;45.99;98144.78;5030508;28;8870;-82
2024/01/15 04:30:20;;;;;;;;;11.80;10.80;;;;;4.38;45.05;98148.03;4993953;28;8848;-81
2024/01/15 04:32:49;;;;;;;;;10.00;8.00;;;;;4.55;45.55;98138.16;4994474;28;8860;-80
2024/01/15 04:35:19;;;;;;;;;7.20;7.20;;;;;4.54;45.27;98114.75;5033051;28;8965;-81
2024/01/15 04:37:48;;;;;;;;;10.00;9.20;;;;;4.33;45.45;98122.06;5048916;28;8899;-81
2024/01/15 04:40:19;;;;;;;;;10.80;10.60;;;;;4.34;46.12;98123.81;5045556;28;8938;-80
2024/01/15 04:42:47;;;;;;;;;11.00;9.80;;;;;4.27;45.92;98122.19;5025248;28;9602;-79
2024/01/15 04:45:18;;;;;;;;;11.80;10.80;;;;;4.45;45.12;98120.13;5047975;28;8860;-80
2024/01/15 04:47:47;;;;;;;;;11.40;10.40;;;;;4.31;45.66;98113.44;5064515;28;8849;-81
2024/01/15 04:50:16;;;;;;;;;11.00;11.00;;;;;4.32;45.35;98111.72;5030888;28;8857;-81
2024/01/15 04:52:45;;;;;;;;;10.60;10.60;;;;;4.20;45.39;98112.78;5048495;28;8869;-80
2024/01/15 04:55:15;;;;;;;;;11.20;10.80;;;;;4.26;45.40;98122.22;5046410;28;8906;-79
2024/01/15 04:57:45;;;;;;;;;7.20;6.00;;;;;4.29;46.27;98124.78;5008325;28;8855;-80
2024/01/15 05:00:15;;;;;;;;;10.40;10.40;;;;;4.28;45.27;98115.25;4999041;28;8887;-80
2024/01/15 05:02:44;;;;;;;;;10.20;10.20;;;;;4.26;45.69;98119.63;5068592;28;8877;-80
2024/01/15 05:05:13;;;;;;;;;12.80;11.60;;;;;4.46;44.56;98108.84;5093107;28;8891;-79
2024/01/15 05:07:42;;;;;;;;;11.40;10.20;;;;;4.59;44.40;98102.53;5058648;28;8976;-80
2024/01/15 05:10:11;;;;;;;;;11.20;10.20;;;;;4.70;43.64;98100.56;5030990;28;8925;-81
2024/01/15 05:12:40;;;;;;;;;8.60;8.60;;;;;4.29;44.80;98099.63;5051575;28;8919;-81
2024/01/15 05:15:11;;;;;;;;;13.60;9.60;;;;;4.57;43.99;98086.09;5035231;28;8856;-83
2024/01/15 05:17:40;;;;;;;;;12.40;12.40;;;;;4.86;44.80;98089.81;5052055;28;8876;-81
2024/01/15 05:20:11;;;;;;;;;12.80;12.00;;;;;4.87;43.63;98078.53;5033791;28;8936;-80
2024/01/15 05:22:41;;;;;;;;;12.80;12.80;;;;;5.02;42.56;98075.59;5033556;28;8850;-80
2024/01/15 05:25:10;;;;;;;;;15.20;13.40;;;;;4.99;42.78;98080.84;5034464;28;9696;-79
2024/01/15 05:27:39;;;;;;;;;25.80;25.60;;;;;4.91;42.86;98083.63;5062578;28;8870;-81
2024/01/15 05:30:09;;;;;;;;;17.80;16.80;;;;;5.22;42.57;98100.31;5038335;28;8860;-80
2024/01/15 05:32:40;;;;;;;;;10.60;10.20;;;;;5.50;42.98;98104.03;5010670;28;9006;-81
2024/01/15 05:35:10;;;;;;;;;15.80;13.20;;;;;5.34;41.96;98102.69;5013392;28;8862;-80
2024/01/15 05:37:42;;;;;;;;;18.20;12.80;;;;;5.30;42.64;98101.00;5015974;28;9687;-80
2024/01/15 05:40:12;;;;;;;;;7.60;7.60;;;;;5.10;42.77;98102.31;5014141;28;8871;-79
2024/01/15 05:42:42;;;;;;;;;15.40;15.20;;;;;4.94;43.06;98100.91;5011147;28;8985;-80
2024/01/15 05:45:12;;;;;;;;;15.40;15.40;;;;;5.10;42.75;98099.72;4995204;28;8842;-81
2024/01/15 05:47:43;;;;;;;;;19.80;16.60;;;;;4.77;43.21;98090.84;5010879;28;9548;-81
2024/01/15 05:50:13;;;;;;;;;24.20;22.80;;;;;4.45;43.64;98091.50;4996242;28;8878;-81
2024/01/15 05:52:42;;;;;;;;;10.80;10.80;;;;;4.50;43.98;98087.09;5046465;28;8858;-81
2024/01/15 05:55:11;;;;;;;;;15.80;14.20;;;;;4.31;44.45;98091.78;5002379;28;8913;-80
2024/01/15 05:57:40;;;;;;;;;17.60;17.60;;;;;4.02;44.39;98081.91;4995240;28;8877;-79
2024/01/15 06:00:10;;;;;;;;;14.60;14.60;;;;;4.12;44.68;98078.28;5030861;28;8880;-81
2024/01/15 06:02:40;;;;;;;;;15.00;15.00;;;;;4.25;44.67;98068.50;4999203;28;8916;-81
2024/01/15 06:05:10;;;;;;;;;15.80;15.80;;;;;4.28;44.57;98056.31;5030101;28;8861;-81
2024/01/15 06:07:39;;;;;;;;;18.20;15.40;;;;;4.38;45.14;98056.13;5030235;28;8971;-81
2024/01/15 06:10:09;;;;;;;;;17.60;14.60;;;;;4.50;44.19;98051.50;5030193;28;8900;-81
2024/01/15 06:12:38;;;;;;;;;17.20;17.20;;;;;4.47;44.35;98054.19;5014729;28;8880;-81
2024/01/15 06:15:08;;;;;;;;;15.40;14.60;;;;;4.42;44.28;98060.38;5020220;28;8871;-81
2024/01/15 06:17:38;;;;;;;;;13.40;13.20;;;;;4.43;43.17;98052.50;5083972;28;8879;-81
2024/01/15 06:20:11;;;;;;;;;13.80;11.60;;;;;4.62;43.50;98049.53;5030457;28;8937;-81
2024/01/15 06:22:40;;;;;;;;;14.80;14.80;;;;;4.48;43.62;98053.28;5053616;28;8885;-80
2024/01/15 06:25:09;;;;;;;;;13.20;10.80;;;;;4.58;43.08;98046.13;5046417;28;8928;-82
2024/01/15 06:27:38;;;;;;;;;11.00;10.60;;;;;4.64;43.49;98047.75;5039446;28;8844;-81
2024/01/15 06:30:09;;;;;;;;;14.20;12.80;;;;;4.51;43.58;98047.19;5037419;28;8875;-81
2024/01/15 06:32:38;;;;;;;;;14.00;14.00;;;;;4.51;43.90;98052.38;5037556;28;8886;-81
2024/01/15 06:35:10;;;;;;;;;13.80;10.60;;;;;4.57;43.59;98034.88;5051812;28;8852;-80
2024/01/15 06:37:42;;;;;;;;;12.00;12.00;;;;;4.66;43.32;98048.56;5057046;28;8828;-80
2024/01/15 06:40:12;;;;;;;;;10.80;10.40;;;;;4.67;43.57;98039.91;5019972;28;8853;-82
2024/01/15 06:42:41;;;;;;;;;19.20;19.20;;;;;4.82;43.26;98036.97;5070587;28;8974;-80
2024/01/15 06:45:11;;;;;;;;;15.20;15.20;;;;;4.90;43.25;98027.22;5053790;28;8842;-82
2024/01/15 06:47:41;;;;;;;;;16.20;16.20;;;;;4.77;43.19;98030.97;5018873;28;8865;-79
2024/01/15 06:50:11;;;;;;;;;15.80;15.00;;;;;4.69;43.28;98018.13;5009398;28;8886;-79
2024/01/15 06:52:41;;;;;;;;;16.80;15.00;;;;;4.92;43.31;98017.66;5008474;28;8843;-80
2024/01/15 06:55:10;;;;;;;;;18.80;15.40;;;;;4.78;43.35;98018.84;4992674;28;8870;-80
2024/01/15 06:57:39;;;;;;;;;16.80;16.00;;;;;4.59;43.32;98021.84;4976943;28;8846;-79
2024/01/15 07:00:10;;;;;;;;;20.20;18.80;;;;;4.57;43.57;98021.88;5009897;28;8966;-80
2024/01/15 07:02:39;;;;;;;;;19.60;18.20;;;;;4.73;43.29;98022.41;4991475;28;8858;-77
2024/01/15 07:05:09;;;;;;;;;22.80;22.60;;;;;4.72;43.34;98023.28;5006674;28;8859;-81
2024/01/15 07:07:38;;;;;;;;;17.80;17.60;;;;;4.61;43.94;98014.84;5008303;28;8866;-80
2024/01/15 07:10:10;;;;;;;;;15.60;15.60;;;;;4.49;44.25;98030.72;5008392;28;8908;-81
2024/01/15 07:12:39;;;;;;;;;16.20;16.20;;;;;4.62;43.75;98033.94;4993955;28;8917;-81
2024/01/15 07:15:09;;;;;;;;;13.00;12.60;;;;;4.50;44.55;98035.03;5000828;28;8843;-81
2024/01/15 07:17:40;;;;;;;;;18.60;16.80;;;;;4.73;44.52;98035.44;4961881;28;8858;-85
2024/01/15 07:20:10;;;;;;;;;21.60;20.60;;;;;4.90;43.00;98035.03;5006228;28;9004;-84
2024/01/15 07:22:39;;;;;;;;;21.00;18.20;;;;;4.91;43.27;98030.69;5010588;28;8861;-82
2024/01/15 07:25:10;;;;;;;;;18.60;16.00;;;;;4.94;43.32;98034.09;5062170;28;8865;-83
2024/01/15 07:27:39;;;;;;;;;17.40;16.60;;;;;5.28;42.83;98035.03;5102375;28;8872;-82
2024/01/15 07:30:09;;;;;;;;;21.80;18.00;;;;;5.14;43.77;98024.97;5108783;28;8900;-82
2024/01/15 07:32:40;;;;;;;;;25.60;23.00;;;;;5.22;42.92;98027.38;5008840;28;8906;-82
2024/01/15 07:35:10;;;;;;;;;21.20;19.60;;;;;5.19;42.03;98030.06;5064309;28;8866;-83
2024/01/15 07:37:39;;;;;;;;;22.20;21.20;;;;;5.00;43.38;98027.00;5038766;28;8891;-83
2024/01/15 07:40:12;;;;;;;;;22.20;19.40;;;;;5.04;42.55;98026.94;5038448;28;8859;-82
2024/01/15 07:42:42;;;;;;;;;24.60;22.00;;;;;5.20;42.42;98023.97;5053759;28;8901;-82
2024/01/15 07:45:12;;;;;;;;;22.80;22.20;;;;;5.03;43.12;98027.81;5068263;28;8848;-84
2024/01/15 07:47:41;;;;;;;;;22.60;17.80;;;;;5.06;42.73;98019.94;5042717;28;8840;-79
2024/01/15 07:50:10;;;;;;;;;18.80;17.40;;;;;4.90;43.33;98026.38;5040765;28;8867;-81
2024/01/15 07:52:41;;;;;;;;;18.60;16.00;;;;;4.96;42.65;98023.63;5023495;28;8929;-81
2024/01/15 07:55:13;;;;;;;;;33.40;27.00;;;;;4.96;42.67;98013.22;5070708;28;8975;-83
2024/01/15 07:57:42;;;;;;;;;28.00;22.20;;;;;5.18;43.00;98021.38;5002856;28;8991;-83
2024/01/15 08:00:17;;;;;;;;;23.60;23.00;;;;;5.22;42.48;98027.38;5053146;28;8860;-83
2024/01/15 08:02:46;;;;;;;;;36.00;28.60;;;;;5.12;42.86;98022.38;5018045;28;8960;-80
2024/01/15 08:05:15;;;;;;;;;25.00;21.80;;;;;5.40;43.21;98019.16;5036749;28;8852;-81
2024/01/15 08:07:44;;;;;;;;;27.20;26.40;;;;;5.64;41.97;98022.03;5036841;28;8848;-79
2024/01/15 08:10:15;;;;;;;;;26.20;24.40;;;;;5.51;42.56;98024.13;5035970;28;8888;-82
2024/01/15 08:12:44;;;;;;;;;29.20;27.60;;;;;5.62;41.56;98023.84;5065009;28;8848;-82
2024/01/15 08:15:14;;;;;;;;;25.40;23.60;;;;;5.91;41.93;98026.56;5035354;28;8804;-82
2024/01/15 08:17:44;;;;;;;;;25.00;18.20;;;;;6.16;40.60;98025.88;5047532;28;8888;-79
2024/01/15 08:20:14;;;;;;;;;24.60;23.20;;;;;6.07;41.50;98019.16;5072796;28;8947;-82
2024/01/15 08:22:43;;;;;;;;;20.40;19.40;;;;;6.08;41.47;98023.50;5049503;28;9781;-83
2024/01/15 08:25:13;;;;;;;;;23.80;21.40;;;;;5.93;41.60;98024.75;5053680;28;8856;-81
2024/01/15 08:27:43;;;;;;;;;24.20;22.60;;;;;5.85;41.34;98020.63;5066127;28;8878;-80
2024/01/15 08:30:14;;;;;;;;;21.00;21.00;;;;;6.14;42.09;98022.47;5076500;28;8909;-82
2024/01/15 08:32:43;;;;;;;;;20.40;14.40;;;;;6.16;41.75;98020.66;4987204;28;8953;-81
2024/01/15 08:35:12;;;;;;;;;23.40;20.40;;;;;6.14;41.06;98019.00;5070969;28;8878;-81
2024/01/15 08:37:43;;;;;;;;;32.40;30.20;;;;;6.11;42.11;98012.09;5072336;28;8868;-80
2024/01/15 08:40:13;;;;;;;;;32.80;30.00;;;;;6.12;41.15;98013.84;5035508;28;8871;-81
2024/01/15 08:42:43;;;;;;;;;32.60;29.00;;;;;6.23;40.96;98008.31;5052952;28;9526;-80
2024/01/15 08:45:13;;;;;;;;;27.40;24.60;;;;;6.41;41.79;98005.16;5058891;28;8844;-82
2024/01/15 08:47:42;;;;;;;;;29.60;24.40;;;;;6.70;40.65;98006.94;5036413;28;8932;-80
2024/01/15 08:50:13;;;;;;;;;26.80;26.00;;;;;6.65;41.26;98008.81;5054552;28;8844;-81
2024/01/15 08:52:43;;;;;;;;;31.60;25.40;;;;;6.64;40.43;98003.63;5044578;28;8842;-80
2024/01/15 08:55:12;;;;;;;;;28.60;26.80;;;;;6.70;40.50;97988.66;5101844;28;8969;-82
2024/01/15 08:57:43;;;;;;;;;28.00;25.60;;;;;6.55;40.97;97993.47;5060610;28;8852;-82
2024/01/15 09:00:14;;;;;;;;;32.80;30.20;;;;;6.71;40.94;97990.34;5058066;28;8848;-84
2024/01/15 09:02:43;;;;;;;;;31.80;28.60;;;;;6.91;41.89;97988.94;5063785;28;8964;-81
2024/01/15 09:05:13;;;;;;;;;27.80;26.00;;;;;7.00;41.03;97988.66;5027590;28;8838;-80
2024/01/15 09:07:42;;;;;;;;;27.40;26.60;;;;;7.00;39.95;97988.66;5049355;28;8886;-81
2024/01/15 09:10:13;;;;;;;;;27.00;24.20;;;;;6.88;40.56;97986.38;5084657;28;8852;-81
2024/01/15 09:12:44;;;;;;;;;30.60;28.80;;;;;7.20;41.58;97984.53;5061915;28;8879;-81
2024/01/15 09:15:13;;;;;;;;;26.40;24.80;;;;;7.29;40.26;97990.31;5045704;28;8838;-80
2024/01/15 09:17:42;;;;;;;;;36.00;32.60;;;;;7.26;39.64;97989.56;5048512;28;8862;-82
2024/01/15 09:20:15;;;;;;;;;33.00;30.80;;;;;7.50;39.83;97994.91;5066422;28;8872;-82
2024/01/15 09:22:45;;;;;;;;;32.80;30.80;;;;;7.80;40.52;97990.41;5029233;28;9010;-81
2024/01/15 09:25:15;;;;;;;;;37.20;35.40;;;;;8.01;40.33;97997.47;5016169;28;9602;-81
2024/01/15 09:27:46;;;;;;;;;38.00;34.80;;;;;8.21;39.23;97998.53;5023723;28;8880;-81
2024/01/15 09:30:16;;;;;;;;;40.40;36.80;;;;;8.11;38.93;98005.00;5009298;28;8884;-80
2024/01/15 09:32:45;;;;;;;;;36.20;35.00;;;;;8.28;39.71;97997.41;5017362;28;9126;-81
2024/01/15 09:35:15;;;;;;;;;36.60;34.40;;;;;8.33;39.38;97992.88;5034907;28;8849;-81
2024/01/15 09:37:43;;;;;;;;;39.20;36.00;;;;;8.50;39.73;97992.25;5014186;28;8925;-85
2024/01/15 09:40:16;;;;;;;;;41.25;37.25;;;;;8.61;39.37;97990.09;5030380;28;8871;-81
2024/01/15 09:42:48;;;;;;;;;38.00;35.40;;;;;8.69;38.71;97987.19;5037929;28;8991;-83
2024/01/15 09:45:17;;;;;;;;;39.20;36.20;;;;;8.77;38.52;97990.34;5041380;28;8871;-80
2024/01/15 09:47:47;;;;;;;;;45.25;38.75;;;;;8.80;38.79;97984.16;5028229;28;8874;-82
2024/01/15 09:50:17;;;;;;;;;45.50;40.50;;;;;8.92;38.62;97986.28;5027070;28;8848;-82
2024/01/15 09:52:47;;;;;;;;;41.40;37.60;;;;;8.94;38.20;97980.97;5014236;28;9102;-83
2024/01/15 09:55:16;;;;;;;;;43.75;37.75;;;;;9.01;38.22;97978.06;5034421;28;8873;-83
2024/01/15 09:57:47;;;;;;;;;47.25;38.75;;;;;9.06;39.80;97969.16;5036589;28;8949;-81
2024/01/15 10:00:19;;;;;;;;;44.50;38.00;;;;;9.01;37.76;97974.59;5026847;28;8854;-80
2024/01/15 10:02:49;;;;;;;;;43.75;36.50;;;;;9.10;38.30;97961.13;5045026;28;8840;-80
2024/01/15 10:05:18;;;;;;;;;43.25;39.00;;;;;9.16;38.73;97957.41;5071551;28;8867;-82
2024/01/15 10:07:50;;;;;;;;;45.50;39.00;;;;;9.16;37.68;97954.78;5073352;28;8891;-80
2024/01/15 10:10:21;;;;;;;;;45.40;38.00;;;;;9.23;37.99;97954.47;5057109;28;8883;-82
2024/01/15 10:12:52;;;;;;;;;42.50;38.25;;;;;9.34;38.32;97961.88;5038441;28;8890;-83
2024/01/15 10:15:26;;;;;;;;;35.00;33.50;;;;;9.35;38.93;97954.88;5056173;28;8876;-82
2024/01/15 10:17:55;;;;;;;;;39.50;36.00;;;;;9.41;38.54;97958.06;5092952;28;8887;-82
2024/01/15 10:20:24;;;;;;;;;45.75;39.25;;;;;9.48;38.33;97957.81;5037546;28;9019;-81
2024/01/15 10:22:54;;;;;;;;;47.25;39.75;;;;;9.53;37.26;97950.59;5076531;28;8887;-79
2024/01/15 10:25:25;;;;;;;;;43.50;38.25;;;;;9.60;37.73;97938.97;5041516;28;8870;-81
2024/01/15 10:28:04;;;;;;;;;59.00;47.75;;;;;9.85;37.93;97943.16;5055294;28;8886;-80
2024/01/15 10:30:35;;;;;;;;;72.25;57.25;;;;;9.82;37.52;97933.66;5037542;28;8850;-83
2024/01/15 10:33:05;;;;;;;;;79.33;64.67;;;;;9.90;37.53;97935.94;5054957;28;8864;-82
2024/01/15 10:35:36;;;;;;;;;66.00;50.25;;;;;9.95;36.78;97939.19;5054401;28;9019;-81
2024/01/15 10:38:07;;;;;;;;;60.25;50.00;;;;;10.09;37.14;97933.34;5038091;28;8860;-82
2024/01/15 10:40:37;;;;;;;;;63.00;49.50;;;;;10.15;37.37;97927.81;5021443;28;8848;-82
2024/01/15 10:43:07;;;;;;;;;57.25;47.75;;;;;10.24;37.36;97924.78;5054489;28;8848;-85
2024/01/15 10:45:39;;;;;;;;;58.50;48.50;;;;;10.33;37.20;97924.38;5038760;28;8841;-81
2024/01/15 10:48:08;;;;;;;;;76.00;60.33;;;;;10.44;37.74;97917.75;5038243;28;8872;-81
2024/01/15 10:50:38;;;;;;;;;72.00;59.00;;;;;10.55;36.98;97918.09;5046282;28;8958;-82
2024/01/15 10:53:10;;;;;;;;;72.50;57.25;;;;;10.67;37.23;97916.66;5037196;28;9133;-82
2024/01/15 10:55:40;;;;;;;;;83.33;66.67;;;;;10.71;36.71;97921.72;5078333;28;8916;-81
2024/01/15 10:58:11;;;;;;;;;80.00;66.00;;;;;10.82;37.08;97915.13;5057905;28;9438;-83
2024/01/15 11:00:40;;;;;;;;;74.67;60.00;;;;;10.90;36.53;97913.84;5036657;28;9395;-82
2024/01/15 11:03:10;;;;;;;;;64.50;52.25;;;;;11.00;37.48;97911.59;5073028;28;9294;-82
2024/01/15 11:05:40;;;;;;;;;63.25;50.00;;;;;11.10;36.32;97917.25;5080501;28;8971;-81
2024/01/15 11:08:09;;;;;;;;;56.75;45.25;;;;;11.20;36.52;97915.88;5068922;28;8871;-80
2024/01/15 11:10:46;;;;;;;;;64.00;51.25;;;;;11.23;36.51;97914.88;5044220;28;8840;-84
2024/01/15 11:13:21;;;;;;;;;55.50;46.50;;;;;11.08;34.96;97909.44;5055835;28;9006;-81
2024/01/15 11:16:02;;;;;;;;;54.75;45.50;;;;;11.38;35.43;97907.06;5071682;28;8836;-81
2024/01/15 11:18:32;;;;;;;;;48.00;41.25;;;;;11.45;36.38;97904.97;5035929;28;8858;-83
2024/01/15 11:21:25;;;;;;;;;48.75;40.25;;;;;11.58;34.24;97905.22;5049298;28;8840;-80
2024/01/15 11:23:57;;;;;;;;;50.00;41.25;;;;;11.46;35.50;97905.81;5045726;28;8959;-81
2024/01/15 11:26:36;;;;;;;;;32.00;27.75;;;;;11.72;36.43;97909.75;5033084;28;8834;-81
2024/01/15 11:29:10;;;;;;;;;57.50;46.50;;;;;11.63;35.72;97903.16;5046601;28;8883;-81
2024/01/15 11:32:05;;;;;;;;;54.50;45.25;;;;;11.67;35.94;97894.22;5049972;28;8866;-80
2024/01/15 11:35:01;;;;;;;;;53.00;44.75;;;;;11.85;35.46;97902.09;5036274;28;9011;-82
2024/01/15 11:37:58;;;;;;;;;49.75;41.00;;;;;11.90;35.03;97897.41;5027689;28;8954;-82
2024/01/15 11:40:42;;;;;;;;;49.75;39.50;;;;;11.89;35.58;97891.31;5021074;28;8875;-82
2024/01/15 11:43:13;;;;;;;;;50.25;39.75;;;;;11.72;35.54;97894.78;5029605;28;8923;-83
2024/01/15 11:45:43;;;;;;;;;50.25;41.75;;;;;11.75;34.54;97886.75;5027783;28;8896;-84
2024/01/15 11:48:17;;;;;;;;;54.50;45.25;;;;;11.70;35.37;97888.75;5029168;28;8869;-81